WetterOnline ( https://www.wetteronline.de )

Wetter aktuell Norderney

Aktuelles Wetter: Norderney (16m)

6-stündlich | Neueste Meldungen
Ortszeit Temperatur Wetter
Mo, 27.05. 14:00 17.4° C wolkig
Mo, 27.05. 8:00 14.9° C wolkig
Mo, 27.05. 2:00 16.1° C bedeckt
So, 26.05. 20:00 19.0° C wolkig
So, 26.05. 14:00 19.0° C leicht bewölkt
So, 26.05. 8:00 15.6° C wolkenlos
So, 26.05. 2:00 15.5° C wolkig
Sa, 25.05. 20:00 17.0° C wolkig
Ortszeit Temperatur Wetter
Mo, 27.05. 15:30 17.1° C bewölkt
Mo, 27.05. 15:20 17.1° C bewölkt
Mo, 27.05. 15:10 16.5° C bedeckt
Mo, 27.05. 15:00 16.8° C bedeckt
Mo, 27.05. 14:50 16.8° C bedeckt
Mo, 27.05. 14:40 16.2° C bedeckt
Mo, 27.05. 14:30 17.5° C bewölkt
Mo, 27.05. 14:00 17.4° C wolkig
Mo, 27.05. 13:30 18.2° C wolkig
Mo, 27.05. 13:00 17.6° C wolkig
Mo, 27.05. 12:30 17.7° C bedeckt
Ortszeit Relative Feuchte Sichtweite
Mo, 27.05. 14:00 61% 40 km
Mo, 27.05. 8:00 80% 35 km
Mo, 27.05. 2:00 80% >70 km
So, 26.05. 20:00 65% 60 km
So, 26.05. 14:00 77% 12 km
So, 26.05. 8:00 84% 18 km
So, 26.05. 2:00 91% 16 km
Sa, 25.05. 20:00 86% 12 km
Ortszeit Relative Feuchte Sichtweite
Mo, 27.05. 15:30 67% 40 km
Mo, 27.05. 15:20 67% -
Mo, 27.05. 15:10 71% -
Mo, 27.05. 15:00 74% 35 km
Mo, 27.05. 14:50 74% -
Mo, 27.05. 14:40 74% -
Mo, 27.05. 14:30 62% 55 km
Mo, 27.05. 14:00 61% 40 km
Mo, 27.05. 13:30 63% 30 km
Mo, 27.05. 13:00 65% 30 km
Mo, 27.05. 12:30 67% 40 km
Ortszeit Niederschlagsmenge Niederschlagsart
Mo, 27.05. 14:00 0.0 l/m2 in 6 Std. -
Mo, 27.05. 8:00 0.1 l/m2 in 12 Std. -
Mo, 27.05. 2:00 0.1 l/m2 in 6 Std. Regen
So, 26.05. 20:00 1 l/m2 in 12 Std. Regen
So, 26.05. 14:00 0.0 l/m2 in 6 Std. -
So, 26.05. 8:00 0.1 l/m2 in 12 Std. -
So, 26.05. 2:00 0.1 l/m2 in 6 Std. Regen
Sa, 25.05. 20:00 0.8 l/m2 in 12 Std. Regen
Ortszeit Niederschlagsmenge Niederschlagsart
Mo, 27.05. 15:30 <0.05 l/m2 in 30 Min Schneeregen
Mo, 27.05. 15:20 keine Meldung -
Mo, 27.05. 15:10 keine Meldung -
Mo, 27.05. 15:00 <0.05 l/m2 in 1 Std. Regen
Mo, 27.05. 14:50 keine Meldung -
Mo, 27.05. 14:40 keine Meldung -
Mo, 27.05. 14:30 <0.05 l/m2 in 30 Min Schneeregen
Mo, 27.05. 14:00 0.0 l/m2 in 1 Std. -
Mo, 27.05. 13:30 0.0 l/m2 in 30 Min -
Mo, 27.05. 13:00 0.0 l/m2 in 1 Std. -
Mo, 27.05. 12:30 0.0 l/m2 in 30 Min -
Ortszeit Stärke Spitze Richtung
km/h Bft. km/h Grad Sektor
Mo, 27.05. 14:00 15 3 33 220° SW
Mo, 27.05. 8:00 18 3 40 220° SW
Mo, 27.05. 2:00 18 3 32 220° SW
So, 26.05. 20:00 7 2 40 300° NW
So, 26.05. 14:00 22 4 32 50° NO
So, 26.05. 8:00 9 2 15 160° S
So, 26.05. 2:00 9 2 22 260° W
Sa, 25.05. 20:00 11 2 36 90° O
Ortszeit Stärke Spitze Richtung
km/h Bft. km/h Grad Sektor
Mo, 27.05. 15:30 9 2 19 270° W
Mo, 27.05. 15:20 9 2 - 270° W
Mo, 27.05. 15:10 9 2 - 270° W
Mo, 27.05. 15:00 15 3 30 280° W
Mo, 27.05. 14:50 15 3 - 280° W
Mo, 27.05. 14:40 22 4 - 280° W
Mo, 27.05. 14:30 11 2 22 220° SW
Mo, 27.05. 14:00 15 3 30 220° SW
Mo, 27.05. 13:30 14 3 29 210° SW
Mo, 27.05. 13:00 20 4 28 210° SW
Mo, 27.05. 12:30 18 3 29 210° SW
Ortszeit Untergrenze Bedeckung Gattung
total tief tief mittel hoch
Mo, 27.05. 14:00 1800 m 8/8 1/8 - - -
Mo, 27.05. 8:00 390 m 8/8 1/8 - - -
Mo, 27.05. 2:00 480 m 8/8 8/8 - - -
So, 26.05. 20:00 2100 m 8/8 1/8 - - -
So, 26.05. 14:00 1440 m 7/8 1/8 - - -
So, 26.05. 8:00 - 0/8 0/8 - - -
So, 26.05. 2:00 360 m 8/8 3/8 - - -
Sa, 25.05. 20:00 1500 m 6/8 6/8 - - -
Ortszeit Bedeckungsgrad in Achtel und Wolkenuntergrenze
Mo, 27.05. 15:30 1(1800m) 7(2700m) 7(7200m)
Mo, 27.05. 15:20 1(1800m) 7(2700m) 7(7200m)
Mo, 27.05. 15:10 8
Mo, 27.05. 15:00 5(900m) 7(2100m) 8(2700m)
Mo, 27.05. 14:50 5(900m) 7(2100m) 8(2700m)
Mo, 27.05. 14:40 8
Mo, 27.05. 14:30 1(870m) 7(2100m) 8(3000m)
Mo, 27.05. 14:00 1(1800m) 7(6900m) 8(7800m)
Mo, 27.05. 13:30 1(750m) 5(7500m) 7(8700m)
Mo, 27.05. 13:00 3(3000m) 5(7800m) 7(9000m)
Mo, 27.05. 12:30 8(3000m)
Ortszeit Luftdruck NN (hPa) Tendenz (hPa in 3 Std.)
Mo, 27.05. 14:00 1017 + 0,2
Mo, 27.05. 8:00 1015 + 0,8
Mo, 27.05. 2:00 1014 + 0,4
So, 26.05. 20:00 1013 - 0,5
So, 26.05. 14:00 1016 - 1,4
So, 26.05. 8:00 1018 + 0,3
So, 26.05. 2:00 1017 + 0,4
Sa, 25.05. 20:00 1016 - 0,1
Ortszeit Luftdruck NN (hPa) Tendenz (hPa in 3 Std.)
Mo, 27.05. 15:30 1017 + 0,2
Mo, 27.05. 15:20 1017 keine Meldung
Mo, 27.05. 15:10 1017 keine Meldung
Mo, 27.05. 15:00 1017 + 0,3
Mo, 27.05. 14:50 1017 keine Meldung
Mo, 27.05. 14:40 1017 keine Meldung
Mo, 27.05. 14:30 1017 + 0,2
Mo, 27.05. 14:00 1017 + 0,2
Mo, 27.05. 13:30 1016 0,0
Mo, 27.05. 13:00 1016 + 0,2
Mo, 27.05. 12:30 1016 + 0,4
Ortszeit Schneehöhe (cm)
Mo, 27.05. 14:00 0
Mo, 27.05. 8:00 0
Mo, 27.05. 2:00 0
So, 26.05. 20:00 0
So, 26.05. 14:00 0
So, 26.05. 8:00 0
So, 26.05. 2:00 0
Sa, 25.05. 20:00 0
Ortszeit Schneehöhe (cm)
Mo, 27.05. 15:30 0
Mo, 27.05. 15:20 0
Mo, 27.05. 15:10 -
Mo, 27.05. 15:00 0
Mo, 27.05. 14:50 0
Mo, 27.05. 14:40 -
Mo, 27.05. 14:30 0
Mo, 27.05. 14:00 0
Mo, 27.05. 13:30 0
Mo, 27.05. 13:00 0
Mo, 27.05. 12:30 0
Link zu dieser Seite / Seite empfehlen

Das Wetter in ...